Weather at Boise Air Terminal/Gowen Field

Public forecast

Using degrees Fahrenheit for public forecast. Weather courtesy of forecast.io.

Current aviation weather report (METAR) for Boise Air Terminal/Gowen Field

Retrieved 2022/01/17 03:53 UTC (26 minutes ago):

KBOI 170353Z 00000KT 10SM CLR M02/M05 A3030 RMK AO2 SLP283 T10171050

Aviation forecast (TAF) for Boise Air Terminal/Gowen Field

Retrieved 2022-01-17 00:39 UTC (4 hours ago):

TAF KBOI 162336Z 1700/1724 VRB03KT P6SM SKC FM170900 13006KT P6SM VCFG BKN015 FM171800 VRB03KT P6SM FEW015